aviador You're here:

CYPR Decoded Metar

PRINCE PUPERT in BC, CANADA
Report Time2017-07-26 06:00:00
UTC Time2017-07-26 06:34:06
Flight Rules vfr VFR
Wind170° at 04 kt
W.Decomp.*RWY 13: 3.8 kt HW 1.2 kt RCW
W.Rank170° ranks 13
Current wind is below 170° avg. (6.2)
Visibility9999 m
Phenomena:N/A
Clouds:Broken 032 Hf
Overcast 065 Hf
Expected CloudBase > 800 ft AGL from Temp-Dew spread
Ceiling3,200 ft
Temp15°C (ISA 0)
Dew Point13°C (88% RH)
AAT14.5°C
QNH1015 hPa
Density Alt272 ft
Elevation112 ft
Report Wrong Elevation
Raw Report
CYPR 260600Z AUTO 17004KT 120V200 9SM BKN032 OVC065 15/13 A2997
RMK SLP150=

Extra information for CYPR:More info

Metar Taf Metar & Taf Last 4 Metars F.Rules Stats Wind Profile Meteogram Temp Stats Airport Information Weather charts Add Link Nearby VenuesMetar ALERT Operation Metar Decoded Social comments